HTTB

Tabora Airport

Airport
ICAO code
HTTB
IATA Code
TBO
Summary
ICAO Region
AFI
ICAO Territory
Location

Tabora, Tabora Region

Serving
Tabora
Elevation
3868 ft
Coordinates
5° 4' 37" S , 32° 49' 56" E
KCC
Aw
Airport BS
Bird Strike
Metar
Observation
HTTB 151000Z 14015KT 9999 FEW024 29/12 Q1018 NOSIG
Station
Tabora Airport
Date/Time
2022-08-15 10:00:00
Wind direction
140°
Wind speed
15 kts
Lowest cloud amount
few clouds
Temperature
29°C
Dew point
12°C
Humidity
35%
QNH
1018 hPa
Weather condition
n/a

International airport serving Tabora, Tanzania.

Climatology

Tropical Savanna climate (Köppen climate classification Aw)

Airport map

Aerial View

SKYbrary Partners:

Safety knowledge contributed by: